sensor_id;sensor_type;location;lat;lon;timestamp;P1;durP1;ratioP1;P2;durP2;ratioP2
35592;SDS011;64447;52.140;5.602;2023-09-19T00:00:22;12.50;;;3.50;;
35592;SDS011;64447;52.140;5.602;2023-09-19T00:05:20;8.43;;;2.90;;
35592;SDS011;64447;52.140;5.602;2023-09-19T00:07:49;9.40;;;3.22;;
35592;SDS011;64447;52.140;5.602;2023-09-19T00:10:20;7.80;;;2.97;;
35592;SDS011;64447;52.140;5.602;2023-09-19T00:12:47;7.05;;;3.08;;
35592;SDS011;64447;52.140;5.602;2023-09-19T00:15:12;6.63;;;2.38;;
35592;SDS011;64447;52.140;5.602;2023-09-19T00:17:42;11.80;;;3.78;;
35592;SDS011;64447;52.140;5.602;2023-09-19T00:20:08;8.07;;;3.40;;
35592;SDS011;64447;52.140;5.602;2023-09-19T00:22:41;5.95;;;3.20;;
35592;SDS011;64447;52.140;5.602;2023-09-19T00:25:10;7.53;;;3.00;;
35592;SDS011;64447;52.140;5.602;2023-09-19T00:27:37;6.80;;;3.28;;
35592;SDS011;64447;52.140;5.602;2023-09-19T00:30:08;9.93;;;3.22;;
35592;SDS011;64447;52.140;5.602;2023-09-19T00:32:39;8.57;;;3.30;;
35592;SDS011;64447;52.140;5.602;2023-09-19T00:35:05;6.45;;;3.08;;
35592;SDS011;64447;52.140;5.602;2023-09-19T00:37:33;11.40;;;3.47;;
35592;SDS011;64447;52.140;5.602;2023-09-19T00:39:59;6.38;;;3.03;;
35592;SDS011;64447;52.140;5.602;2023-09-19T00:42:24;8.32;;;3.47;;
35592;SDS011;64447;52.140;5.602;2023-09-19T00:44:50;7.22;;;2.95;;
35592;SDS011;64447;52.140;5.602;2023-09-19T00:47:17;5.10;;;2.40;;
35592;SDS011;64447;52.140;5.602;2023-09-19T00:53:20;7.00;;;3.03;;
35592;SDS011;64447;52.140;5.602;2023-09-19T00:55:48;8.13;;;3.15;;
35592;SDS011;64447;52.140;5.602;2023-09-19T00:58:16;5.95;;;2.80;;
35592;SDS011;64447;52.140;5.602;2023-09-19T01:00:43;7.28;;;3.08;;
35592;SDS011;64447;52.140;5.602;2023-09-19T01:03:10;6.30;;;3.28;;
35592;SDS011;64447;52.140;5.602;2023-09-19T01:05:38;9.27;;;3.50;;
35592;SDS011;64447;52.140;5.602;2023-09-19T01:08:03;6.47;;;3.13;;
35592;SDS011;64447;52.140;5.602;2023-09-19T01:10:29;5.65;;;3.42;;
35592;SDS011;64447;52.140;5.602;2023-09-19T01:13:05;7.15;;;3.47;;
35592;SDS011;64447;52.140;5.602;2023-09-19T01:29:39;7.88;;;3.70;;
35592;SDS011;64447;52.140;5.602;2023-09-19T01:32:09;8.50;;;3.20;;
35592;SDS011;64447;52.140;5.602;2023-09-19T01:37:37;10.32;;;3.83;;
35592;SDS011;64447;52.140;5.602;2023-09-19T01:43:04;9.23;;;3.88;;
35592;SDS011;64447;52.140;5.602;2023-09-19T01:45:40;10.15;;;4.03;;
35592;SDS011;64447;52.140;5.602;2023-09-19T01:56:36;9.48;;;3.80;;
35592;SDS011;64447;52.140;5.602;2023-09-19T01:59:09;9.18;;;3.83;;
35592;SDS011;64447;52.140;5.602;2023-09-19T02:01:38;8.25;;;3.78;;
35592;SDS011;64447;52.140;5.602;2023-09-19T02:07:30;9.10;;;3.90;;
35592;SDS011;64447;52.140;5.602;2023-09-19T02:09:57;10.18;;;4.88;;
35592;SDS011;64447;52.140;5.602;2023-09-19T02:12:25;9.20;;;3.55;;
35592;SDS011;64447;52.140;5.602;2023-09-19T02:14:51;9.32;;;4.38;;
35592;SDS011;64447;52.140;5.602;2023-09-19T02:17:16;10.07;;;3.70;;
35592;SDS011;64447;52.140;5.602;2023-09-19T02:23:04;13.43;;;4.18;;
35592;SDS011;64447;52.140;5.602;2023-09-19T02:25:30;11.07;;;3.60;;
35592;SDS011;64447;52.140;5.602;2023-09-19T02:27:56;10.07;;;3.08;;
35592;SDS011;64447;52.140;5.602;2023-09-19T02:30:23;8.52;;;3.47;;
35592;SDS011;64447;52.140;5.602;2023-09-19T02:32:50;9.85;;;3.00;;
35592;SDS011;64447;52.140;5.602;2023-09-19T02:38:38;8.80;;;3.30;;
35592;SDS011;64447;52.140;5.602;2023-09-19T02:41:04;10.05;;;3.65;;
35592;SDS011;64447;52.140;5.602;2023-09-19T02:43:30;10.43;;;3.72;;
35592;SDS011;64447;52.140;5.602;2023-09-19T02:45:55;13.85;;;3.85;;
35592;SDS011;64447;52.140;5.602;2023-09-19T02:48:22;14.00;;;3.28;;
35592;SDS011;64447;52.140;5.602;2023-09-19T02:50:50;10.43;;;3.55;;
35592;SDS011;64447;52.140;5.602;2023-09-19T02:53:16;12.98;;;3.38;;
35592;SDS011;64447;52.140;5.602;2023-09-19T02:55:42;9.80;;;3.33;;
35592;SDS011;64447;52.140;5.602;2023-09-19T02:58:08;10.63;;;3.67;;
35592;SDS011;64447;52.140;5.602;2023-09-19T03:00:35;16.60;;;3.65;;
35592;SDS011;64447;52.140;5.602;2023-09-19T03:03:01;11.88;;;3.85;;
35592;SDS011;64447;52.140;5.602;2023-09-19T03:08:49;8.25;;;2.88;;
35592;SDS011;64447;52.140;5.602;2023-09-19T03:11:16;12.85;;;3.92;;
35592;SDS011;64447;52.140;5.602;2023-09-19T03:13:50;8.40;;;3.15;;
35592;SDS011;64447;52.140;5.602;2023-09-19T03:16:17;16.20;;;3.13;;
35592;SDS011;64447;52.140;5.602;2023-09-19T03:18:44;9.77;;;3.92;;
35592;SDS011;64447;52.140;5.602;2023-09-19T03:21:10;7.95;;;2.92;;
35592;SDS011;64447;52.140;5.602;2023-09-19T03:23:35;13.25;;;3.63;;
35592;SDS011;64447;52.140;5.602;2023-09-19T03:26:01;11.00;;;3.08;;
35592;SDS011;64447;52.140;5.602;2023-09-19T03:28:27;12.60;;;3.17;;
35592;SDS011;64447;52.140;5.602;2023-09-19T03:33:28;12.68;;;3.60;;
35592;SDS011;64447;52.140;5.602;2023-09-19T03:35:56;11.95;;;3.20;;
35592;SDS011;64447;52.140;5.602;2023-09-19T03:38:24;10.48;;;3.28;;
35592;SDS011;64447;52.140;5.602;2023-09-19T03:40:53;9.23;;;3.53;;
35592;SDS011;64447;52.140;5.602;2023-09-19T03:43:19;10.75;;;2.97;;
35592;SDS011;64447;52.140;5.602;2023-09-19T03:45:45;11.38;;;3.83;;
35592;SDS011;64447;52.140;5.602;2023-09-19T03:48:11;9.65;;;3.17;;
35592;SDS011;64447;52.140;5.602;2023-09-19T03:54:00;12.82;;;3.88;;
35592;SDS011;64447;52.140;5.602;2023-09-19T03:56:25;10.60;;;3.03;;
35592;SDS011;64447;52.140;5.602;2023-09-19T03:58:51;11.23;;;3.75;;
35592;SDS011;64447;52.140;5.602;2023-09-19T04:01:17;9.55;;;3.45;;
35592;SDS011;64447;52.140;5.602;2023-09-19T04:03:43;11.60;;;3.38;;
35592;SDS011;64447;52.140;5.602;2023-09-19T04:06:15;9.10;;;3.67;;
35592;SDS011;64447;52.140;5.602;2023-09-19T04:08:42;6.75;;;3.00;;
35592;SDS011;64447;52.140;5.602;2023-09-19T04:11:08;11.45;;;3.10;;
35592;SDS011;64447;52.140;5.602;2023-09-19T04:13:34;10.18;;;3.33;;
35592;SDS011;64447;52.140;5.602;2023-09-19T04:15:59;10.63;;;3.58;;
35592;SDS011;64447;52.140;5.602;2023-09-19T04:18:25;7.43;;;3.38;;
35592;SDS011;64447;52.140;5.602;2023-09-19T04:24:13;11.93;;;3.25;;
35592;SDS011;64447;52.140;5.602;2023-09-19T04:26:39;11.68;;;3.70;;
35592;SDS011;64447;52.140;5.602;2023-09-19T04:29:04;9.25;;;3.67;;
35592;SDS011;64447;52.140;5.602;2023-09-19T04:31:31;9.35;;;3.10;;
35592;SDS011;64447;52.140;5.602;2023-09-19T04:33:56;9.98;;;3.20;;
35592;SDS011;64447;52.140;5.602;2023-09-19T04:36:24;6.57;;;2.95;;
35592;SDS011;64447;52.140;5.602;2023-09-19T04:38:49;11.02;;;3.30;;
35592;SDS011;64447;52.140;5.602;2023-09-19T04:41:15;7.95;;;3.63;;
35592;SDS011;64447;52.140;5.602;2023-09-19T04:43:41;11.48;;;3.22;;
35592;SDS011;64447;52.140;5.602;2023-09-19T04:46:06;9.05;;;3.25;;
35592;SDS011;64447;52.140;5.602;2023-09-19T04:48:32;7.95;;;3.10;;
35592;SDS011;64447;52.140;5.602;2023-09-19T04:54:21;10.57;;;3.40;;
35592;SDS011;64447;52.140;5.602;2023-09-19T04:56:47;9.40;;;3.65;;
35592;SDS011;64447;52.140;5.602;2023-09-19T04:59:13;12.35;;;3.35;;
35592;SDS011;64447;52.140;5.602;2023-09-19T05:01:40;9.05;;;3.50;;
35592;SDS011;64447;52.140;5.602;2023-09-19T05:04:05;7.55;;;3.13;;
35592;SDS011;64447;52.140;5.602;2023-09-19T05:06:31;12.63;;;3.95;;
35592;SDS011;64447;52.140;5.602;2023-09-19T05:09:00;11.18;;;2.78;;
35592;SDS011;64447;52.140;5.602;2023-09-19T05:11:26;7.82;;;3.30;;
35592;SDS011;64447;52.140;5.602;2023-09-19T05:13:51;11.80;;;3.63;;
35592;SDS011;64447;52.140;5.602;2023-09-19T05:16:20;9.60;;;3.20;;
35592;SDS011;64447;52.140;5.602;2023-09-19T05:18:47;10.07;;;2.53;;
35592;SDS011;64447;52.140;5.602;2023-09-19T05:24:34;8.93;;;2.95;;
35592;SDS011;64447;52.140;5.602;2023-09-19T05:26:59;9.80;;;3.55;;
35592;SDS011;64447;52.140;5.602;2023-09-19T05:29:25;10.93;;;3.15;;
35592;SDS011;64447;52.140;5.602;2023-09-19T05:31:51;7.93;;;3.25;;
35592;SDS011;64447;52.140;5.602;2023-09-19T05:34:19;8.48;;;3.58;;
35592;SDS011;64447;52.140;5.602;2023-09-19T05:36:45;12.80;;;3.13;;
35592;SDS011;64447;52.140;5.602;2023-09-19T05:39:10;12.40;;;3.13;;
35592;SDS011;64447;52.140;5.602;2023-09-19T05:41:37;10.25;;;3.42;;
35592;SDS011;64447;52.140;5.602;2023-09-19T05:44:05;11.00;;;3.13;;
35592;SDS011;64447;52.140;5.602;2023-09-19T05:46:32;7.93;;;3.00;;
35592;SDS011;64447;52.140;5.602;2023-09-19T05:48:57;8.63;;;2.97;;
35592;SDS011;64447;52.140;5.602;2023-09-19T05:51:23;9.85;;;3.20;;
35592;SDS011;64447;52.140;5.602;2023-09-19T05:53:50;9.40;;;3.17;;
35592;SDS011;64447;52.140;5.602;2023-09-19T05:56:17;9.82;;;3.30;;
35592;SDS011;64447;52.140;5.602;2023-09-19T05:58:44;10.27;;;3.40;;
35592;SDS011;64447;52.140;5.602;2023-09-19T06:01:09;11.75;;;3.20;;
35592;SDS011;64447;52.140;5.602;2023-09-19T06:03:35;11.10;;;3.35;;
35592;SDS011;64447;52.140;5.602;2023-09-19T06:09:22;11.77;;;3.00;;
35592;SDS011;64447;52.140;5.602;2023-09-19T06:11:48;6.68;;;2.63;;
35592;SDS011;64447;52.140;5.602;2023-09-19T06:14:13;13.43;;;3.28;;
35592;SDS011;64447;52.140;5.602;2023-09-19T06:16:39;9.80;;;3.22;;
35592;SDS011;64447;52.140;5.602;2023-09-19T06:19:06;13.63;;;3.42;;
35592;SDS011;64447;52.140;5.602;2023-09-19T06:24:55;13.45;;;3.60;;
35592;SDS011;64447;52.140;5.602;2023-09-19T06:27:21;11.57;;;3.20;;
35592;SDS011;64447;52.140;5.602;2023-09-19T06:29:47;10.38;;;3.28;;
35592;SDS011;64447;52.140;5.602;2023-09-19T06:32:12;11.38;;;3.22;;
35592;SDS011;64447;52.140;5.602;2023-09-19T06:34:38;10.73;;;3.03;;
35592;SDS011;64447;52.140;5.602;2023-09-19T06:37:04;9.32;;;2.90;;
35592;SDS011;64447;52.140;5.602;2023-09-19T06:39:31;12.02;;;3.33;;
35592;SDS011;64447;52.140;5.602;2023-09-19T06:41:57;11.80;;;3.60;;
35592;SDS011;64447;52.140;5.602;2023-09-19T06:44:23;15.35;;;3.53;;
35592;SDS011;64447;52.140;5.602;2023-09-19T06:46:49;8.35;;;3.17;;
35592;SDS011;64447;52.140;5.602;2023-09-19T06:49:16;13.40;;;3.58;;
35592;SDS011;64447;52.140;5.602;2023-09-19T06:51:43;12.05;;;3.45;;
35592;SDS011;64447;52.140;5.602;2023-09-19T06:54:09;12.90;;;3.13;;
35592;SDS011;64447;52.140;5.602;2023-09-19T06:56:35;9.68;;;2.85;;
35592;SDS011;64447;52.140;5.602;2023-09-19T06:59:00;7.53;;;3.22;;
35592;SDS011;64447;52.140;5.602;2023-09-19T07:01:27;17.38;;;3.75;;
35592;SDS011;64447;52.140;5.602;2023-09-19T07:03:53;10.13;;;3.47;;
35592;SDS011;64447;52.140;5.602;2023-09-19T07:09:41;12.50;;;3.30;;
35592;SDS011;64447;52.140;5.602;2023-09-19T07:12:07;13.40;;;3.03;;
35592;SDS011;64447;52.140;5.602;2023-09-19T07:14:33;16.10;;;3.67;;
35592;SDS011;64447;52.140;5.602;2023-09-19T07:16:58;12.10;;;3.70;;
35592;SDS011;64447;52.140;5.602;2023-09-19T07:19:25;9.80;;;3.30;;
35592;SDS011;64447;52.140;5.602;2023-09-19T07:21:53;16.30;;;3.97;;
35592;SDS011;64447;52.140;5.602;2023-09-19T07:24:19;17.00;;;3.35;;
35592;SDS011;64447;52.140;5.602;2023-09-19T07:26:47;10.30;;;3.35;;
35592;SDS011;64447;52.140;5.602;2023-09-19T07:29:13;11.30;;;3.50;;
35592;SDS011;64447;52.140;5.602;2023-09-19T07:31:39;10.27;;;3.50;;
35592;SDS011;64447;52.140;5.602;2023-09-19T07:34:04;14.40;;;3.38;;
35592;SDS011;64447;52.140;5.602;2023-09-19T07:39:52;12.55;;;3.53;;
35592;SDS011;64447;52.140;5.602;2023-09-19T07:42:17;15.32;;;3.63;;
35592;SDS011;64447;52.140;5.602;2023-09-19T07:44:43;11.38;;;2.90;;
35592;SDS011;64447;52.140;5.602;2023-09-19T07:47:13;13.02;;;3.20;;
35592;SDS011;64447;52.140;5.602;2023-09-19T07:49:39;10.82;;;3.63;;
35592;SDS011;64447;52.140;5.602;2023-09-19T07:55:27;7.28;;;2.70;;
35592;SDS011;64447;52.140;5.602;2023-09-19T07:57:54;12.30;;;3.53;;
35592;SDS011;64447;52.140;5.602;2023-09-19T08:00:19;11.15;;;3.38;;
35592;SDS011;64447;52.140;5.602;2023-09-19T08:02:45;16.13;;;4.05;;
35592;SDS011;64447;52.140;5.602;2023-09-19T08:05:11;13.85;;;3.20;;
35592;SDS011;64447;52.140;5.602;2023-09-19T08:07:41;9.60;;;3.30;;
35592;SDS011;64447;52.140;5.602;2023-09-19T08:10:08;13.35;;;3.55;;
35592;SDS011;64447;52.140;5.602;2023-09-19T08:12:44;15.40;;;3.72;;
35592;SDS011;64447;52.140;5.602;2023-09-19T08:15:14;13.02;;;3.45;;
35592;SDS011;64447;52.140;5.602;2023-09-19T08:17:44;11.25;;;3.40;;
35592;SDS011;64447;52.140;5.602;2023-09-19T08:20:10;14.73;;;3.40;;
35592;SDS011;64447;52.140;5.602;2023-09-19T08:22:48;11.23;;;3.78;;
35592;SDS011;64447;52.140;5.602;2023-09-19T08:25:17;11.20;;;3.47;;
35592;SDS011;64447;52.140;5.602;2023-09-19T08:27:43;11.93;;;3.67;;
35592;SDS011;64447;52.140;5.602;2023-09-19T08:30:20;12.93;;;3.40;;
35592;SDS011;64447;52.140;5.602;2023-09-19T08:32:50;15.32;;;3.38;;
35592;SDS011;64447;52.140;5.602;2023-09-19T08:35:15;9.63;;;3.38;;
35592;SDS011;64447;52.140;5.602;2023-09-19T08:37:44;13.68;;;4.13;;
35592;SDS011;64447;52.140;5.602;2023-09-19T08:40:13;14.25;;;3.53;;
35592;SDS011;64447;52.140;5.602;2023-09-19T08:42:51;17.10;;;3.55;;
35592;SDS011;64447;52.140;5.602;2023-09-19T08:45:19;11.90;;;3.38;;
35592;SDS011;64447;52.140;5.602;2023-09-19T08:47:47;17.08;;;4.32;;
35592;SDS011;64447;52.140;5.602;2023-09-19T08:50:24;9.43;;;3.60;;
35592;SDS011;64447;52.140;5.602;2023-09-19T08:52:53;13.02;;;4.28;;
35592;SDS011;64447;52.140;5.602;2023-09-19T08:55:22;16.13;;;3.95;;
35592;SDS011;64447;52.140;5.602;2023-09-19T08:57:51;11.27;;;3.78;;
35592;SDS011;64447;52.140;5.602;2023-09-19T09:00:19;15.13;;;3.78;;
35592;SDS011;64447;52.140;5.602;2023-09-19T09:02:47;14.38;;;4.22;;
35592;SDS011;64447;52.140;5.602;2023-09-19T09:05:14;15.88;;;3.78;;
35592;SDS011;64447;52.140;5.602;2023-09-19T09:07:47;11.05;;;4.30;;
35592;SDS011;64447;52.140;5.602;2023-09-19T09:10:16;13.50;;;4.55;;
35592;SDS011;64447;52.140;5.602;2023-09-19T09:12:43;11.13;;;3.45;;
35592;SDS011;64447;52.140;5.602;2023-09-19T09:15:09;11.38;;;3.35;;
35592;SDS011;64447;52.140;5.602;2023-09-19T09:17:37;11.95;;;3.60;;
35592;SDS011;64447;52.140;5.602;2023-09-19T09:20:03;12.65;;;2.83;;
35592;SDS011;64447;52.140;5.602;2023-09-19T09:25:55;17.83;;;3.75;;
35592;SDS011;64447;52.140;5.602;2023-09-19T09:28:25;8.48;;;2.88;;
35592;SDS011;64447;52.140;5.602;2023-09-19T09:30:51;12.80;;;3.15;;
35592;SDS011;64447;52.140;5.602;2023-09-19T09:33:17;11.00;;;3.55;;
35592;SDS011;64447;52.140;5.602;2023-09-19T09:35:50;10.52;;;3.47;;
35592;SDS011;64447;52.140;5.602;2023-09-19T09:38:21;11.38;;;3.45;;
35592;SDS011;64447;52.140;5.602;2023-09-19T09:40:53;10.13;;;2.80;;
35592;SDS011;64447;52.140;5.602;2023-09-19T09:43:35;8.00;;;3.33;;
35592;SDS011;64447;52.140;5.602;2023-09-19T09:48:56;11.35;;;3.25;;
35592;SDS011;64447;52.140;5.602;2023-09-19T09:51:58;11.63;;;3.50;;
35592;SDS011;64447;52.140;5.602;2023-09-19T09:54:26;13.65;;;3.75;;
35592;SDS011;64447;52.140;5.602;2023-09-19T09:57:00;13.27;;;4.00;;
35592;SDS011;64447;52.140;5.602;2023-09-19T10:02:13;11.40;;;3.45;;
35592;SDS011;64447;52.140;5.602;2023-09-19T10:04:45;9.60;;;3.22;;
35592;SDS011;64447;52.140;5.602;2023-09-19T10:07:29;10.18;;;3.30;;
35592;SDS011;64447;52.140;5.602;2023-09-19T10:10:07;10.43;;;3.40;;
35592;SDS011;64447;52.140;5.602;2023-09-19T10:12:42;11.23;;;3.10;;
35592;SDS011;64447;52.140;5.602;2023-09-19T10:15:11;12.65;;;3.70;;
35592;SDS011;64447;52.140;5.602;2023-09-19T10:17:42;9.98;;;2.92;;
35592;SDS011;64447;52.140;5.602;2023-09-19T10:20:09;11.70;;;3.10;;
35592;SDS011;64447;52.140;5.602;2023-09-19T10:22:48;11.95;;;2.83;;
35592;SDS011;64447;52.140;5.602;2023-09-19T10:25:23;7.07;;;2.15;;
35592;SDS011;64447;52.140;5.602;2023-09-19T10:28:00;10.20;;;3.25;;
35592;SDS011;64447;52.140;5.602;2023-09-19T10:30:35;12.77;;;3.08;;
35592;SDS011;64447;52.140;5.602;2023-09-19T10:33:13;8.70;;;2.85;;
35592;SDS011;64447;52.140;5.602;2023-09-19T10:35:47;14.65;;;3.30;;
35592;SDS011;64447;52.140;5.602;2023-09-19T10:38:19;9.70;;;2.80;;
35592;SDS011;64447;52.140;5.602;2023-09-19T10:40:49;14.27;;;3.30;;
35592;SDS011;64447;52.140;5.602;2023-09-19T10:43:19;7.28;;;2.67;;
35592;SDS011;64447;52.140;5.602;2023-09-19T10:45:47;11.32;;;3.25;;
35592;SDS011;64447;52.140;5.602;2023-09-19T10:48:15;11.10;;;2.78;;
35592;SDS011;64447;52.140;5.602;2023-09-19T10:51:31;10.23;;;3.00;;
35592;SDS011;64447;52.140;5.602;2023-09-19T10:54:11;7.88;;;2.90;;
35592;SDS011;64447;52.140;5.602;2023-09-19T10:56:48;6.20;;;2.85;;
35592;SDS011;64447;52.140;5.602;2023-09-19T10:59:18;8.88;;;3.25;;
35592;SDS011;64447;52.140;5.602;2023-09-19T11:04:22;8.60;;;3.17;;
35592;SDS011;64447;52.140;5.602;2023-09-19T11:13:25;13.68;;;3.40;;
35592;SDS011;64447;52.140;5.602;2023-09-19T11:18:50;11.20;;;3.40;;
35592;SDS011;64447;52.140;5.602;2023-09-19T11:24:32;10.95;;;2.97;;
35592;SDS011;64447;52.140;5.602;2023-09-19T11:27:14;7.07;;;3.03;;
35592;SDS011;64447;52.140;5.602;2023-09-19T11:29:42;9.20;;;3.38;;
35592;SDS011;64447;52.140;5.602;2023-09-19T11:32:08;10.15;;;3.30;;
35592;SDS011;64447;52.140;5.602;2023-09-19T11:34:41;6.45;;;2.55;;
35592;SDS011;64447;52.140;5.602;2023-09-19T11:39:37;7.93;;;2.80;;
35592;SDS011;64447;52.140;5.602;2023-09-19T11:42:49;7.63;;;2.88;;
35592;SDS011;64447;52.140;5.602;2023-09-19T11:48:12;11.10;;;2.45;;
35592;SDS011;64447;52.140;5.602;2023-09-19T11:50:43;8.15;;;2.22;;
35592;SDS011;64447;52.140;5.602;2023-09-19T11:53:12;8.50;;;2.22;;
35592;SDS011;64447;52.140;5.602;2023-09-19T11:55:40;9.95;;;2.60;;
35592;SDS011;64447;52.140;5.602;2023-09-19T11:58:09;9.10;;;2.70;;
35592;SDS011;64447;52.140;5.602;2023-09-19T12:00:35;6.22;;;2.20;;
35592;SDS011;64447;52.140;5.602;2023-09-19T12:03:09;8.20;;;2.50;;
35592;SDS011;64447;52.140;5.602;2023-09-19T12:05:36;10.73;;;2.15;;
35592;SDS011;64447;52.140;5.602;2023-09-19T12:08:02;6.65;;;2.13;;
35592;SDS011;64447;52.140;5.602;2023-09-19T12:10:32;5.93;;;2.40;;
35592;SDS011;64447;52.140;5.602;2023-09-19T12:12:58;7.38;;;2.13;;
35592;SDS011;64447;52.140;5.602;2023-09-19T12:15:27;9.30;;;2.20;;
35592;SDS011;64447;52.140;5.602;2023-09-19T12:17:59;8.65;;;2.05;;
35592;SDS011;64447;52.140;5.602;2023-09-19T12:20:25;7.03;;;2.03;;
35592;SDS011;64447;52.140;5.602;2023-09-19T12:23:12;7.53;;;1.70;;
35592;SDS011;64447;52.140;5.602;2023-09-19T12:25:42;5.35;;;1.80;;
35592;SDS011;64447;52.140;5.602;2023-09-19T12:28:11;5.95;;;1.88;;
35592;SDS011;64447;52.140;5.602;2023-09-19T12:30:37;7.97;;;1.50;;
35592;SDS011;64447;52.140;5.602;2023-09-19T12:33:09;9.70;;;2.20;;
35592;SDS011;64447;52.140;5.602;2023-09-19T12:35:51;5.32;;;1.52;;
35592;SDS011;64447;52.140;5.602;2023-09-19T12:38:27;6.43;;;2.00;;
35592;SDS011;64447;52.140;5.602;2023-09-19T12:40:57;5.53;;;1.92;;
35592;SDS011;64447;52.140;5.602;2023-09-19T12:43:26;8.73;;;2.25;;
35592;SDS011;64447;52.140;5.602;2023-09-19T12:45:57;4.90;;;1.95;;
35592;SDS011;64447;52.140;5.602;2023-09-19T12:48:25;3.33;;;1.70;;
35592;SDS011;64447;52.140;5.602;2023-09-19T12:51:02;5.63;;;1.52;;
35592;SDS011;64447;52.140;5.602;2023-09-19T12:53:33;5.40;;;1.92;;
35592;SDS011;64447;52.140;5.602;2023-09-19T12:56:04;5.07;;;1.80;;
35592;SDS011;64447;52.140;5.602;2023-09-19T12:58:33;5.00;;;1.70;;
35592;SDS011;64447;52.140;5.602;2023-09-19T13:01:00;4.35;;;1.88;;
35592;SDS011;64447;52.140;5.602;2023-09-19T13:03:30;5.55;;;1.58;;
35592;SDS011;64447;52.140;5.602;2023-09-19T13:06:03;7.93;;;2.42;;
35592;SDS011;64447;52.140;5.602;2023-09-19T13:08:38;5.45;;;1.90;;
35592;SDS011;64447;52.140;5.602;2023-09-19T13:11:10;4.53;;;1.88;;
35592;SDS011;64447;52.140;5.602;2023-09-19T13:13:39;4.50;;;1.63;;
35592;SDS011;64447;52.140;5.602;2023-09-19T13:16:51;4.50;;;2.17;;
35592;SDS011;64447;52.140;5.602;2023-09-19T13:25:44;3.83;;;1.70;;
35592;SDS011;64447;52.140;5.602;2023-09-19T13:28:11;3.92;;;1.55;;
35592;SDS011;64447;52.140;5.602;2023-09-19T13:30:37;6.65;;;1.70;;
35592;SDS011;64447;52.140;5.602;2023-09-19T13:33:10;4.13;;;1.40;;
35592;SDS011;64447;52.140;5.602;2023-09-19T13:35:37;3.28;;;1.65;;
35592;SDS011;64447;52.140;5.602;2023-09-19T13:41:26;4.95;;;1.80;;
35592;SDS011;64447;52.140;5.602;2023-09-19T13:43:53;4.15;;;1.10;;
35592;SDS011;64447;52.140;5.602;2023-09-19T13:46:21;4.20;;;1.33;;
35592;SDS011;64447;52.140;5.602;2023-09-19T13:48:50;3.58;;;1.33;;
35592;SDS011;64447;52.140;5.602;2023-09-19T13:51:19;4.68;;;1.45;;
35592;SDS011;64447;52.140;5.602;2023-09-19T13:57:09;4.38;;;1.30;;
35592;SDS011;64447;52.140;5.602;2023-09-19T13:59:35;7.30;;;2.00;;
35592;SDS011;64447;52.140;5.602;2023-09-19T14:02:01;4.35;;;1.63;;
35592;SDS011;64447;52.140;5.602;2023-09-19T14:04:30;4.13;;;1.70;;
35592;SDS011;64447;52.140;5.602;2023-09-19T14:06:56;6.50;;;1.75;;
35592;SDS011;64447;52.140;5.602;2023-09-19T14:09:23;3.42;;;1.48;;
35592;SDS011;64447;52.140;5.602;2023-09-19T14:11:49;2.97;;;1.52;;
35592;SDS011;64447;52.140;5.602;2023-09-19T14:14:17;2.65;;;1.27;;
35592;SDS011;64447;52.140;5.602;2023-09-19T14:16:49;3.50;;;1.45;;
35592;SDS011;64447;52.140;5.602;2023-09-19T14:19:15;3.63;;;1.70;;
35592;SDS011;64447;52.140;5.602;2023-09-19T14:21:41;5.82;;;1.90;;
35592;SDS011;64447;52.140;5.602;2023-09-19T14:27:29;4.25;;;1.60;;
35592;SDS011;64447;52.140;5.602;2023-09-19T14:29:55;6.47;;;1.70;;
35592;SDS011;64447;52.140;5.602;2023-09-19T14:32:22;3.13;;;1.50;;
35592;SDS011;64447;52.140;5.602;2023-09-19T14:34:48;5.75;;;1.98;;
35592;SDS011;64447;52.140;5.602;2023-09-19T14:37:14;4.53;;;1.40;;
35592;SDS011;64447;52.140;5.602;2023-09-19T14:39:41;5.93;;;1.50;;
35592;SDS011;64447;52.140;5.602;2023-09-19T14:42:09;6.93;;;2.03;;
35592;SDS011;64447;52.140;5.602;2023-09-19T14:44:36;7.10;;;1.52;;
35592;SDS011;64447;52.140;5.602;2023-09-19T14:47:02;5.43;;;1.80;;
35592;SDS011;64447;52.140;5.602;2023-09-19T14:49:35;3.60;;;1.58;;
35592;SDS011;64447;52.140;5.602;2023-09-19T14:52:03;3.35;;;1.65;;
35592;SDS011;64447;52.140;5.602;2023-09-19T14:57:53;5.22;;;1.92;;
35592;SDS011;64447;52.140;5.602;2023-09-19T15:00:21;3.10;;;1.63;;
35592;SDS011;64447;52.140;5.602;2023-09-19T15:02:48;5.35;;;2.00;;
35592;SDS011;64447;52.140;5.602;2023-09-19T15:05:15;3.53;;;1.60;;
35592;SDS011;64447;52.140;5.602;2023-09-19T15:07:41;5.43;;;1.70;;
35592;SDS011;64447;52.140;5.602;2023-09-19T15:10:07;5.18;;;1.73;;
35592;SDS011;64447;52.140;5.602;2023-09-19T15:12:34;4.05;;;1.92;;
35592;SDS011;64447;52.140;5.602;2023-09-19T15:15:06;6.07;;;2.10;;
35592;SDS011;64447;52.140;5.602;2023-09-19T15:17:35;7.45;;;2.08;;
35592;SDS011;64447;52.140;5.602;2023-09-19T15:20:02;7.47;;;1.85;;
35592;SDS011;64447;52.140;5.602;2023-09-19T15:22:28;7.22;;;2.25;;
35592;SDS011;64447;52.140;5.602;2023-09-19T15:28:53;3.95;;;2.15;;
35592;SDS011;64447;52.140;5.602;2023-09-19T15:31:19;5.15;;;2.10;;
35592;SDS011;64447;52.140;5.602;2023-09-19T15:33:45;6.72;;;2.45;;
35592;SDS011;64447;52.140;5.602;2023-09-19T15:36:11;5.97;;;2.45;;
35592;SDS011;64447;52.140;5.602;2023-09-19T15:41:32;5.90;;;2.13;;
35592;SDS011;64447;52.140;5.602;2023-09-19T15:43:59;5.80;;;2.53;;
35592;SDS011;64447;52.140;5.602;2023-09-19T15:46:26;6.35;;;2.20;;
35592;SDS011;64447;52.140;5.602;2023-09-19T15:48:54;9.18;;;2.40;;
35592;SDS011;64447;52.140;5.602;2023-09-19T15:51:20;4.78;;;2.30;;
35592;SDS011;64447;52.140;5.602;2023-09-19T15:53:46;6.50;;;2.38;;
35592;SDS011;64447;52.140;5.602;2023-09-19T15:56:16;4.32;;;2.08;;
35592;SDS011;64447;52.140;5.602;2023-09-19T15:58:46;4.80;;;2.33;;
35592;SDS011;64447;52.140;5.602;2023-09-19T16:01:12;6.43;;;2.10;;
35592;SDS011;64447;52.140;5.602;2023-09-19T16:03:39;5.78;;;2.10;;
35592;SDS011;64447;52.140;5.602;2023-09-19T16:06:09;9.18;;;2.72;;
35592;SDS011;64447;52.140;5.602;2023-09-19T16:08:45;6.53;;;2.30;;
35592;SDS011;64447;52.140;5.602;2023-09-19T16:11:11;6.97;;;2.45;;
35592;SDS011;64447;52.140;5.602;2023-09-19T16:13:38;7.57;;;2.20;;
35592;SDS011;64447;52.140;5.602;2023-09-19T16:16:09;6.20;;;2.47;;
35592;SDS011;64447;52.140;5.602;2023-09-19T16:18:37;5.15;;;2.00;;
35592;SDS011;64447;52.140;5.602;2023-09-19T16:21:26;7.32;;;2.30;;
35592;SDS011;64447;52.140;5.602;2023-09-19T16:23:52;9.05;;;2.35;;
35592;SDS011;64447;52.140;5.602;2023-09-19T16:26:19;6.53;;;2.22;;
35592;SDS011;64447;52.140;5.602;2023-09-19T16:28:46;4.75;;;1.85;;
35592;SDS011;64447;52.140;5.602;2023-09-19T16:31:14;5.95;;;2.53;;
35592;SDS011;64447;52.140;5.602;2023-09-19T16:33:41;6.57;;;2.40;;
35592;SDS011;64447;52.140;5.602;2023-09-19T16:36:09;8.73;;;2.53;;
35592;SDS011;64447;52.140;5.602;2023-09-19T16:38:36;4.53;;;2.13;;
35592;SDS011;64447;52.140;5.602;2023-09-19T16:41:03;5.32;;;2.40;;
35592;SDS011;64447;52.140;5.602;2023-09-19T16:43:29;5.88;;;2.10;;
35592;SDS011;64447;52.140;5.602;2023-09-19T16:46:01;6.25;;;2.40;;
35592;SDS011;64447;52.140;5.602;2023-09-19T16:48:29;4.88;;;2.40;;
35592;SDS011;64447;52.140;5.602;2023-09-19T16:50:58;3.45;;;2.22;;
35592;SDS011;64447;52.140;5.602;2023-09-19T16:53:25;3.88;;;1.90;;
35592;SDS011;64447;52.140;5.602;2023-09-19T16:55:51;8.05;;;2.88;;
35592;SDS011;64447;52.140;5.602;2023-09-19T16:58:16;4.55;;;1.83;;
35592;SDS011;64447;52.140;5.602;2023-09-19T17:00:43;3.92;;;1.92;;
35592;SDS011;64447;52.140;5.602;2023-09-19T17:03:11;4.68;;;2.13;;
35592;SDS011;64447;52.140;5.602;2023-09-19T17:05:37;4.90;;;2.20;;
35592;SDS011;64447;52.140;5.602;2023-09-19T17:08:05;6.18;;;2.10;;